createdAt,value
2018-09-04T00:00:00.513Z,22.30
2018-09-04T00:02:28.735Z,21.27
2018-09-04T00:04:56.771Z,22.07
2018-09-04T00:07:25.184Z,21.00
2018-09-04T00:09:53.513Z,20.87
2018-09-04T00:12:21.551Z,21.50
2018-09-04T00:14:49.568Z,21.97
2018-09-04T00:17:17.524Z,20.80
2018-09-04T00:19:45.682Z,22.80
2018-09-04T00:22:13.905Z,22.57
2018-09-04T00:24:42.994Z,22.20
2018-09-04T00:27:11.128Z,22.40
2018-09-04T00:29:39.520Z,21.93
2018-09-04T00:32:08.089Z,20.80
2018-09-04T00:34:36.736Z,21.17
2018-09-04T00:37:05.119Z,23.43
2018-09-04T00:39:33.668Z,23.40
2018-09-04T00:42:01.821Z,24.40
2018-09-04T00:44:30.641Z,21.23
2018-09-04T00:46:58.787Z,24.13
2018-09-04T00:49:26.807Z,23.40
2018-09-04T00:51:54.953Z,23.03
2018-09-04T00:54:22.987Z,26.87
2018-09-04T00:56:50.942Z,23.77
2018-09-04T00:59:18.922Z,25.63
2018-09-04T01:01:46.956Z,26.80
2018-09-04T01:04:16.101Z,23.13
2018-09-04T01:06:44.432Z,27.50
2018-09-04T01:09:15.766Z,29.00
2018-09-04T01:11:43.871Z,28.27
2018-09-04T01:14:11.980Z,28.87
2018-09-04T01:16:40.231Z,30.13
2018-09-04T01:19:08.377Z,26.60
2018-09-04T01:21:37.652Z,25.90
2018-09-04T01:24:06.099Z,28.70
2018-09-04T01:26:34.693Z,29.47
2018-09-04T01:29:03.472Z,29.80
2018-09-04T01:31:31.848Z,29.60
2018-09-04T01:34:01.297Z,29.70
2018-09-04T01:36:29.676Z,31.63
2018-09-04T01:38:57.838Z,28.60
2018-09-04T01:41:25.933Z,30.10
2018-09-04T01:43:53.969Z,32.30
2018-09-04T01:46:21.924Z,33.83
2018-09-04T01:48:50.352Z,32.30
2018-09-04T01:51:18.380Z,32.50
2018-09-04T01:53:46.420Z,32.60
2018-09-04T01:56:14.577Z,31.97
2018-09-04T01:58:42.905Z,33.37
2018-09-04T02:01:11.106Z,32.13
2018-09-04T02:03:39.559Z,32.03
2018-09-04T02:06:07.995Z,33.67
2018-09-04T02:08:36.281Z,35.50
2018-09-04T02:11:04.550Z,36.30
2018-09-04T02:13:33.125Z,30.60
2018-09-04T02:16:01.260Z,34.93
2018-09-04T02:18:29.520Z,34.27
2018-09-04T02:20:57.561Z,36.20
2018-09-04T02:23:25.553Z,35.70
2018-09-04T02:25:53.542Z,35.77
2018-09-04T02:28:21.499Z,33.90
2018-09-04T02:30:49.502Z,35.67
2018-09-04T02:33:17.522Z,37.67
2018-09-04T02:35:45.584Z,38.30
2018-09-04T02:38:13.693Z,34.40
2018-09-04T02:40:41.882Z,35.20
2018-09-04T02:43:10.083Z,36.57
2018-09-04T02:45:38.274Z,39.47
2018-09-04T02:48:06.679Z,39.20
2018-09-04T02:50:34.960Z,38.13
2018-09-04T02:53:03.153Z,37.60
2018-09-04T02:55:31.453Z,36.50
2018-09-04T02:57:59.663Z,42.20
2018-09-04T03:00:28.076Z,41.13
2018-09-04T03:02:56.134Z,37.10
2018-09-04T03:05:24.338Z,40.50
2018-09-04T03:07:52.316Z,42.10
2018-09-04T03:10:20.300Z,40.53
2018-09-04T03:12:48.304Z,42.23
2018-09-04T03:15:16.277Z,43.27
2018-09-04T03:17:44.521Z,40.77
2018-09-04T03:20:12.645Z,41.90
2018-09-04T03:22:40.835Z,46.30
2018-09-04T03:25:09.053Z,43.27
2018-09-04T03:27:37.372Z,46.00
2018-09-04T03:30:05.626Z,44.40
2018-09-04T03:32:33.937Z,46.17
2018-09-04T03:35:02.147Z,42.07
2018-09-04T03:37:30.455Z,46.10
2018-09-04T03:39:58.630Z,47.30
2018-09-04T03:42:26.724Z,48.03
2018-09-04T03:44:54.711Z,45.40
2018-09-04T03:47:22.925Z,53.77
2018-09-04T03:49:51.031Z,48.20
2018-09-04T03:52:19.038Z,46.00
2018-09-04T03:54:47.038Z,46.13
2018-09-04T03:57:15.383Z,46.50
2018-09-04T03:59:43.421Z,43.50
2018-09-04T04:02:11.702Z,43.80
2018-09-04T04:04:40.009Z,44.40
2018-09-04T04:07:08.889Z,45.93
2018-09-04T04:09:37.316Z,43.07
2018-09-04T04:12:05.700Z,44.70
2018-09-04T04:14:33.999Z,43.33
2018-09-04T04:17:02.203Z,45.43
2018-09-04T04:19:30.255Z,44.20
2018-09-04T04:21:58.256Z,45.30
2018-09-04T04:24:26.254Z,44.87
2018-09-04T04:26:54.235Z,42.67
2018-09-04T04:29:22.745Z,43.43
2018-09-04T04:31:50.705Z,42.13
2018-09-04T04:34:18.726Z,44.07
2018-09-04T04:36:47.343Z,43.77
2018-09-04T04:39:15.799Z,42.30
2018-09-04T04:41:43.867Z,40.27
2018-09-04T04:44:12.161Z,43.80
2018-09-04T04:46:40.770Z,41.57
2018-09-04T04:49:08.956Z,43.37
2018-09-04T04:51:37.568Z,43.27
2018-09-04T04:54:06.048Z,42.17
2018-09-04T04:56:35.408Z,42.00
2018-09-04T04:59:08.973Z,41.67
2018-09-04T05:01:37.849Z,41.97
2018-09-04T05:04:07.112Z,41.60
2018-09-04T05:06:35.319Z,42.70
2018-09-04T05:09:04.747Z,37.73
2018-09-04T05:11:35.220Z,39.90
2018-09-04T05:14:03.453Z,39.37
2018-09-04T05:16:31.536Z,39.83
2018-09-04T05:18:59.609Z,39.10
2018-09-04T05:21:27.807Z,40.50
2018-09-04T05:23:56.015Z,41.10
2018-09-04T05:26:24.639Z,39.07
2018-09-04T05:28:52.638Z,40.47
2018-09-04T05:31:20.727Z,39.03
2018-09-04T05:33:48.840Z,39.83
2018-09-04T05:36:17.157Z,37.10
2018-09-04T05:38:45.663Z,36.83
2018-09-04T05:41:13.869Z,37.07
2018-09-04T05:43:52.524Z,40.20
2018-09-04T05:46:32.348Z,37.50
2018-09-04T05:49:01.252Z,36.90
2018-09-04T05:51:29.629Z,35.47
2018-09-04T05:54:00.856Z,34.10
2018-09-04T05:56:31.414Z,38.50
2018-09-04T05:58:59.928Z,37.67
2018-09-04T06:01:30.240Z,36.73
2018-09-04T06:03:58.460Z,36.83
2018-09-04T06:06:26.716Z,38.60
2018-09-04T06:08:55.456Z,36.47
2018-09-04T06:11:23.591Z,39.00
2018-09-04T06:13:51.973Z,37.67
2018-09-04T06:19:11.535Z,33.13
2018-09-04T06:24:20.084Z,36.90
2018-09-04T06:26:49.602Z,31.53
2018-09-04T06:29:19.831Z,34.63
2018-09-04T06:31:47.936Z,35.13
2018-09-04T06:34:17.275Z,34.90
2018-09-04T06:36:46.687Z,33.43
2018-09-04T06:41:56.072Z,33.17
2018-09-04T06:44:24.514Z,32.53
2018-09-04T06:46:52.812Z,31.60
2018-09-04T06:49:21.006Z,33.03
2018-09-04T06:51:49.179Z,37.40
2018-09-04T06:54:17.382Z,33.77
2018-09-04T06:56:45.847Z,35.97
2018-09-04T06:59:26.606Z,35.93
2018-09-04T07:04:40.005Z,36.60
2018-09-04T07:07:08.730Z,34.33
2018-09-04T07:09:37.591Z,36.97
2018-09-04T07:15:04.638Z,35.80
2018-09-04T07:17:36.466Z,37.13
2018-09-04T07:22:39.397Z,35.33
2018-09-04T07:25:08.732Z,36.40
2018-09-04T07:27:37.794Z,36.37
2018-09-04T07:38:51.796Z,33.40
2018-09-04T07:41:26.577Z,37.23
2018-09-04T07:43:56.239Z,36.87
2018-09-04T07:49:11.017Z,36.90
2018-09-04T07:51:39.433Z,38.63
2018-09-04T07:54:09.219Z,38.73
2018-09-04T07:59:22.756Z,37.97
2018-09-04T08:01:52.636Z,38.53
2018-09-04T08:04:21.322Z,42.30
2018-09-04T08:06:58.933Z,39.80
2018-09-04T08:12:36.708Z,40.10
2018-09-04T08:15:05.865Z,38.00
2018-09-04T08:17:34.847Z,39.07
2018-09-04T08:22:38.356Z,35.70
2018-09-04T08:25:07.178Z,37.13
2018-09-04T08:27:36.469Z,37.07
2018-09-04T08:30:05.079Z,35.37
2018-09-04T08:32:34.555Z,34.23
2018-09-04T08:35:03.127Z,36.40
2018-09-04T08:37:31.788Z,32.97
2018-09-04T08:40:05.610Z,33.53
2018-09-04T08:42:34.951Z,35.53
2018-09-04T08:47:41.138Z,35.00
2018-09-04T08:50:09.669Z,34.20
2018-09-04T08:52:39.005Z,33.10
2018-09-04T08:55:19.542Z,33.90
2018-09-04T08:57:47.700Z,32.20
2018-09-04T09:02:50.529Z,34.83
2018-09-04T09:08:01.438Z,36.70
2018-09-04T09:10:30.126Z,33.97
2018-09-04T09:13:01.561Z,38.50
2018-09-04T09:15:30.554Z,36.50
2018-09-04T09:18:03.209Z,34.03
2018-09-04T09:20:35.232Z,37.10
2018-09-04T09:23:03.903Z,33.20
2018-09-04T09:25:42.209Z,36.00
2018-09-04T09:28:10.730Z,34.33
2018-09-04T09:30:40.636Z,33.30
2018-09-04T09:33:13.750Z,30.23
2018-09-04T09:35:44.368Z,33.20
2018-09-04T09:41:03.939Z,28.20
2018-09-04T09:43:32.444Z,29.17
2018-09-04T09:46:01.098Z,25.27
2018-09-04T09:48:34.957Z,27.23
2018-09-04T09:51:06.358Z,24.60
2018-09-04T09:53:36.181Z,25.17
2018-09-04T09:56:05.769Z,27.20
2018-09-04T09:58:34.333Z,23.80
2018-09-04T10:01:12.181Z,23.80
2018-09-04T10:09:08.500Z,21.00
2018-09-04T10:11:37.497Z,21.83
2018-09-04T10:19:38.377Z,17.70
2018-09-04T10:22:09.942Z,16.10
2018-09-04T10:24:44.339Z,15.30
2018-09-04T10:27:12.898Z,15.20
2018-09-04T10:32:33.605Z,16.50
2018-09-04T10:35:01.946Z,15.50
2018-09-04T10:37:33.159Z,15.00
2018-09-04T10:40:07.343Z,13.93
2018-09-04T10:45:18.843Z,13.43
2018-09-04T10:53:19.758Z,13.67
2018-09-04T10:55:56.870Z,17.30
2018-09-04T10:58:25.387Z,16.27
2018-09-04T11:00:54.943Z,16.27
2018-09-04T11:03:23.917Z,14.43
2018-09-04T11:05:55.352Z,15.53
2018-09-04T11:08:29.970Z,16.10
2018-09-04T11:11:01.481Z,15.53
2018-09-04T11:21:24.664Z,17.03
2018-09-04T11:26:48.582Z,15.93
2018-09-04T11:29:18.734Z,17.27
2018-09-04T11:46:09.885Z,20.53
2018-09-04T11:48:40.360Z,18.77
2018-09-04T11:51:11.551Z,22.27
2018-09-04T11:56:24.613Z,20.07
2018-09-04T11:58:53.424Z,18.87
2018-09-04T12:12:18.629Z,22.60
2018-09-04T12:17:38.006Z,23.80
2018-09-04T12:31:29.597Z,26.03
2018-09-04T12:33:58.750Z,28.80
2018-09-04T12:39:09.520Z,32.47
2018-09-04T12:41:40.270Z,35.17
2018-09-04T12:44:17.981Z,31.07
2018-09-04T12:46:48.453Z,32.30
2018-09-04T12:49:22.970Z,28.60
2018-09-04T13:00:08.888Z,31.13
2018-09-04T13:05:36.882Z,26.80
2018-09-04T13:16:40.417Z,26.83
2018-09-04T13:27:26.907Z,25.70
2018-09-04T13:29:55.691Z,26.50
2018-09-04T13:35:29.122Z,22.87
2018-09-04T13:37:58.243Z,22.47
2018-09-04T13:40:27.107Z,21.37
2018-09-04T13:43:04.643Z,22.73
2018-09-04T13:48:25.607Z,22.60
2018-09-04T13:50:53.709Z,20.10
2018-09-04T13:53:30.361Z,20.73
2018-09-04T13:56:00.564Z,21.70
2018-09-04T13:58:35.445Z,20.27
2018-09-04T14:01:06.419Z,19.33
2018-09-04T14:03:35.073Z,20.60
2018-09-04T14:11:24.804Z,22.50
2018-09-04T14:14:02.303Z,21.70
2018-09-04T14:19:13.832Z,21.57
2018-09-04T14:21:47.920Z,21.00
2018-09-04T14:24:16.307Z,21.60
2018-09-04T14:26:45.097Z,23.60
2018-09-04T14:29:53.161Z,23.87
2018-09-04T14:31:42.397Z,22.65
2018-09-04T14:34:21.034Z,20.40
2018-09-04T14:39:28.838Z,19.80
2018-09-04T14:42:07.020Z,21.37
2018-09-04T14:44:35.355Z,21.40
2018-09-04T14:47:04.966Z,19.67
2018-09-04T14:49:38.047Z,20.00
2018-09-04T14:52:07.163Z,20.33
2018-09-04T14:54:35.942Z,18.83
2018-09-04T14:57:04.412Z,18.00
2018-09-04T15:02:15.847Z,21.93
2018-09-04T15:04:44.441Z,21.83
2018-09-04T15:07:12.904Z,18.13
2018-09-04T15:09:41.548Z,20.30
2018-09-04T15:14:52.773Z,20.53
2018-09-04T15:17:20.954Z,19.53
2018-09-04T15:19:58.545Z,21.27
2018-09-04T15:25:05.733Z,17.57
2018-09-04T15:50:27.782Z,15.07
2018-09-04T15:58:50.733Z,17.43
2018-09-04T16:01:19.517Z,16.40
2018-09-04T16:03:53.726Z,16.47
2018-09-04T16:06:21.905Z,16.13
2018-09-04T16:09:00.061Z,15.00
2018-09-04T16:11:31.992Z,16.70
2018-09-04T16:14:04.332Z,15.13
2018-09-04T16:19:17.003Z,16.07
2018-09-04T16:24:22.986Z,17.80
2018-09-04T16:26:51.385Z,16.93
2018-09-04T16:29:19.613Z,15.80
2018-09-04T16:31:52.813Z,18.03
2018-09-04T16:34:22.947Z,15.90
2018-09-04T16:36:51.635Z,17.43
2018-09-04T16:39:20.831Z,19.03
2018-09-04T16:41:49.336Z,18.50
2018-09-04T16:46:50.372Z,15.23
2018-09-04T16:49:22.839Z,17.00
2018-09-04T16:51:50.908Z,18.95
2018-09-04T16:54:19.503Z,18.27
2018-09-04T16:56:48.943Z,17.20
2018-09-04T16:59:17.137Z,18.60
2018-09-04T17:01:45.334Z,17.30
2018-09-04T17:04:14.711Z,12.03
2018-09-04T17:06:44.057Z,15.90
2018-09-04T17:09:12.473Z,14.87
2018-09-04T17:11:40.665Z,18.30
2018-09-04T17:14:09.364Z,16.20
2018-09-04T17:16:37.931Z,18.73
2018-09-04T17:19:06.716Z,16.43
2018-09-04T17:21:35.599Z,17.37
2018-09-04T17:24:04.037Z,14.90
2018-09-04T17:26:32.233Z,19.40
2018-09-04T17:29:00.771Z,19.30
2018-09-04T17:31:29.401Z,16.67
2018-09-04T17:33:57.877Z,19.90
2018-09-04T17:36:26.026Z,19.67
2018-09-04T17:38:54.460Z,19.17
2018-09-04T17:41:22.963Z,20.43
2018-09-04T17:43:51.314Z,18.90
2018-09-04T17:46:19.555Z,18.87
2018-09-04T17:48:47.847Z,17.57
2018-09-04T17:51:15.925Z,18.53
2018-09-04T17:53:44.130Z,17.80
2018-09-04T17:56:12.421Z,21.40
2018-09-04T17:58:40.735Z,20.60
2018-09-04T18:01:09.209Z,21.13
2018-09-04T18:03:37.821Z,21.27
2018-09-04T18:06:07.199Z,18.67
2018-09-04T18:08:35.533Z,19.70
2018-09-04T18:11:03.674Z,17.40
2018-09-04T18:13:31.947Z,18.73
2018-09-04T18:16:00.133Z,20.63
2018-09-04T18:18:28.417Z,21.23
2018-09-04T18:20:56.632Z,22.03
2018-09-04T18:23:25.581Z,23.07
2018-09-04T18:25:57.854Z,18.93
2018-09-04T18:28:25.874Z,21.50
2018-09-04T18:30:54.149Z,21.97
2018-09-04T18:33:22.317Z,23.03
2018-09-04T18:35:50.386Z,24.17
2018-09-04T18:38:18.904Z,23.73
2018-09-04T18:40:49.366Z,23.53
2018-09-04T18:43:17.489Z,21.47
2018-09-04T18:45:47.860Z,22.90
2018-09-04T18:48:16.549Z,22.27
2018-09-04T18:50:44.962Z,22.30
2018-09-04T18:53:13.537Z,22.33
2018-09-04T18:55:41.795Z,21.60
2018-09-04T18:58:11.141Z,20.87
2018-09-04T19:00:39.469Z,20.07
2018-09-04T19:03:09.813Z,22.50
2018-09-04T19:05:38.614Z,20.27
2018-09-04T19:08:07.442Z,21.63
2018-09-04T19:10:36.095Z,22.10
2018-09-04T19:13:05.169Z,22.00
2018-09-04T19:15:34.474Z,24.00
2018-09-04T19:18:03.729Z,23.43
2018-09-04T19:20:32.002Z,24.50
2018-09-04T19:23:00.183Z,23.03
2018-09-04T19:25:28.666Z,21.67
2018-09-04T19:27:57.179Z,21.20
2018-09-04T19:30:25.391Z,21.50
2018-09-04T19:32:53.474Z,19.40
2018-09-04T19:35:21.838Z,21.00
2018-09-04T19:37:50.734Z,19.40
2018-09-04T19:40:18.960Z,20.57
2018-09-04T19:42:47.349Z,20.07
2018-09-04T19:45:15.829Z,19.63
2018-09-04T19:47:44.745Z,19.37
2018-09-04T19:50:14.408Z,20.70
2018-09-04T19:52:43.184Z,17.60
2018-09-04T19:55:13.170Z,18.93
2018-09-04T19:57:42.112Z,17.60
2018-09-04T20:00:10.925Z,17.33
2018-09-04T20:02:39.317Z,18.17
2018-09-04T20:05:08.077Z,19.57
2018-09-04T20:07:36.802Z,18.87
2018-09-04T20:10:05.430Z,19.03
2018-09-04T20:12:33.649Z,18.40
2018-09-04T20:15:01.906Z,18.37
2018-09-04T20:17:31.021Z,20.90
2018-09-04T20:19:59.147Z,19.47
2018-09-04T20:22:28.189Z,18.43
2018-09-04T20:24:56.170Z,20.30
2018-09-04T20:27:24.913Z,22.13
2018-09-04T20:29:53.019Z,20.53
2018-09-04T20:32:22.002Z,20.60
2018-09-04T20:34:50.883Z,18.60
2018-09-04T20:37:19.074Z,17.53
2018-09-04T20:39:47.290Z,19.53
2018-09-04T20:42:15.568Z,17.07
2018-09-04T20:44:43.997Z,18.40
2018-09-04T20:47:12.186Z,17.83
2018-09-04T20:49:40.750Z,17.57
2018-09-04T20:52:08.971Z,18.27
2018-09-04T20:54:37.824Z,19.60
2018-09-04T20:57:26.639Z,17.80
2018-09-04T21:00:00.855Z,18.10
2018-09-04T21:02:34.684Z,18.00
2018-09-04T21:05:08.498Z,18.90
2018-09-04T21:07:47.698Z,17.80
2018-09-04T21:10:15.819Z,19.33
2018-09-04T21:12:43.930Z,19.50
2018-09-04T21:15:12.090Z,18.80
2018-09-04T21:17:40.380Z,19.13
2018-09-04T21:20:08.976Z,18.40
2018-09-04T21:22:37.323Z,20.10
2018-09-04T21:25:06.104Z,20.00
2018-09-04T21:27:34.433Z,18.50
2018-09-04T21:30:02.515Z,18.20
2018-09-04T21:32:30.789Z,20.00
2018-09-04T21:34:59.277Z,17.77
2018-09-04T21:37:27.332Z,18.17
2018-09-04T21:39:55.405Z,16.47
2018-09-04T21:42:23.578Z,17.77
2018-09-04T21:44:51.485Z,17.97
2018-09-04T21:47:19.479Z,17.30
2018-09-04T21:49:47.484Z,16.73
2018-09-04T21:52:15.569Z,16.70
2018-09-04T21:54:44.037Z,19.30
2018-09-04T21:57:12.341Z,19.80
2018-09-04T21:59:40.571Z,18.17
2018-09-04T22:02:08.874Z,17.63
2018-09-04T22:04:37.682Z,16.63
2018-09-04T22:07:06.113Z,18.80
2018-09-04T22:09:37.209Z,19.23
2018-09-04T22:12:07.045Z,17.17
2018-09-04T22:14:35.488Z,18.00
2018-09-04T22:17:04.352Z,19.80
2018-09-04T22:19:32.417Z,17.90
2018-09-04T22:22:00.625Z,18.70
2018-09-04T22:24:31.401Z,18.20
2018-09-04T22:26:59.635Z,17.90
2018-09-04T22:29:27.741Z,17.23
2018-09-04T22:31:55.725Z,17.70
2018-09-04T22:34:24.504Z,18.33
2018-09-04T22:36:52.452Z,19.23
2018-09-04T22:39:20.456Z,18.77
2018-09-04T22:41:48.640Z,16.90
2018-09-04T22:44:16.668Z,19.80
2018-09-04T22:46:44.671Z,17.83
2018-09-04T22:49:12.673Z,19.10
2018-09-04T22:51:41.265Z,17.20
2018-09-04T22:54:09.577Z,18.47
2018-09-04T22:56:38.415Z,17.47
2018-09-04T22:59:06.805Z,20.40
2018-09-04T23:01:36.404Z,19.30
2018-09-04T23:04:04.699Z,20.73
2018-09-04T23:06:32.682Z,19.40
2018-09-04T23:09:00.756Z,19.53
2018-09-04T23:11:28.851Z,17.77
2018-09-04T23:13:56.897Z,16.57
2018-09-04T23:16:24.943Z,15.73
2018-09-04T23:18:52.915Z,18.33
2018-09-04T23:21:20.886Z,18.83
2018-09-04T23:23:49.108Z,19.67
2018-09-04T23:26:17.104Z,18.73
2018-09-04T23:28:45.179Z,18.87
2018-09-04T23:31:13.322Z,19.27
2018-09-04T23:33:41.706Z,18.83
2018-09-04T23:36:09.896Z,17.20
2018-09-04T23:38:38.100Z,17.90
2018-09-04T23:41:07.398Z,17.73
2018-09-04T23:43:35.592Z,16.90
2018-09-04T23:46:03.705Z,16.23
2018-09-04T23:48:31.893Z,14.50
2018-09-04T23:51:01.643Z,16.00
2018-09-04T23:53:29.743Z,14.63
2018-09-04T23:55:58.019Z,15.80
2018-09-04T23:58:26.162Z,15.53
